createdAt,value
2022-09-28T00:00:33.048Z,94687.31
2022-09-28T00:03:19.759Z,94687.03
2022-09-28T00:06:09.652Z,94679.88
2022-09-28T00:08:57.042Z,94683.53
2022-09-28T00:11:43.827Z,94680.84
2022-09-28T00:14:32.451Z,94681.06
2022-09-28T00:17:22.235Z,94684.16
2022-09-28T00:20:09.822Z,94671.75
2022-09-28T00:22:57.669Z,94674.66
2022-09-28T00:25:44.251Z,94672.13
2022-09-28T00:28:31.381Z,94681.25
2022-09-28T00:31:19.050Z,94663.88
2022-09-28T00:34:05.937Z,94666.91
2022-09-28T00:36:52.570Z,94670.28
2022-09-28T00:39:41.695Z,94663.28
2022-09-28T00:42:28.442Z,94673.19
2022-09-28T00:45:15.125Z,94647.59
2022-09-28T00:48:01.983Z,94666.03
2022-09-28T00:50:48.534Z,94660.56
2022-09-28T00:53:36.791Z,94652.91
2022-09-28T00:56:26.634Z,94657.00
2022-09-28T00:59:13.862Z,94656.63
2022-09-28T01:02:00.368Z,94657.59
2022-09-28T01:04:47.552Z,94662.59
2022-09-28T01:07:34.856Z,94657.50
2022-09-28T01:10:21.467Z,94640.19
2022-09-28T01:13:09.978Z,94638.59
2022-09-28T01:16:01.129Z,94650.03
2022-09-28T01:18:55.406Z,94632.97
2022-09-28T01:21:51.115Z,94631.28
2022-09-28T01:24:41.893Z,94645.72
2022-09-28T01:27:31.118Z,94621.06
2022-09-28T01:30:18.593Z,94644.09
2022-09-28T01:33:08.254Z,94639.38
2022-09-28T01:35:56.969Z,94628.78
2022-09-28T01:38:47.610Z,94639.81
2022-09-28T01:41:36.767Z,94643.69
2022-09-28T01:44:27.288Z,94634.66
2022-09-28T01:47:15.969Z,94646.50
2022-09-28T01:50:06.343Z,94647.28
2022-09-28T01:52:56.552Z,94629.28
2022-09-28T01:55:46.357Z,94642.69
2022-09-28T01:58:37.538Z,94631.53
2022-09-28T02:01:30.522Z,94639.19
2022-09-28T02:04:19.423Z,94639.84
2022-09-28T02:07:09.585Z,94629.28
2022-09-28T02:09:59.442Z,94644.81
2022-09-28T02:12:48.472Z,94644.66
2022-09-28T02:15:38.842Z,94644.00
2022-09-28T02:18:26.973Z,94654.53
2022-09-28T02:21:18.527Z,94648.31
2022-09-28T02:24:08.757Z,94643.84
2022-09-28T02:26:56.978Z,94638.59
2022-09-28T02:29:43.377Z,94632.53
2022-09-28T02:32:31.163Z,94632.81
2022-09-28T02:35:20.492Z,94617.00
2022-09-28T02:38:06.729Z,94619.03
2022-09-28T02:41:02.045Z,94621.47
2022-09-28T02:43:56.936Z,94616.91
2022-09-28T02:46:49.450Z,94618.91
2022-09-28T02:49:39.390Z,94617.47
2022-09-28T02:52:39.850Z,94626.75
2022-09-28T02:55:34.951Z,94620.97
2022-09-28T02:58:30.231Z,94621.09
2022-09-28T03:01:22.037Z,94623.09
2022-09-28T03:04:13.801Z,94625.00
2022-09-28T03:07:03.113Z,94623.66
2022-09-28T03:09:55.761Z,94605.56
2022-09-28T03:12:42.940Z,94611.41
2022-09-28T03:15:31.095Z,94610.75
2022-09-28T03:18:17.970Z,94602.84
2022-09-28T03:21:05.535Z,94609.06
2022-09-28T03:23:51.890Z,94618.78
2022-09-28T03:26:39.781Z,94611.13
2022-09-28T03:29:26.687Z,94611.56
2022-09-28T03:32:13.160Z,94613.59
2022-09-28T03:34:59.673Z,94610.91
2022-09-28T03:37:45.954Z,94610.75
2022-09-28T03:40:32.378Z,94595.94
2022-09-28T03:43:20.588Z,94606.00
2022-09-28T03:46:07.482Z,94597.81
2022-09-28T03:48:53.922Z,94596.38
2022-09-28T03:51:40.361Z,94597.31
2022-09-28T03:54:27.160Z,94602.72
2022-09-28T03:57:13.514Z,94593.31
2022-09-28T04:00:01.351Z,94578.00
2022-09-28T04:02:48.089Z,94571.03
2022-09-28T04:05:34.428Z,94568.66
2022-09-28T04:08:21.028Z,94567.97
2022-09-28T04:11:07.932Z,94566.81
2022-09-28T04:13:54.452Z,94565.25
2022-09-28T04:16:42.159Z,94554.31
2022-09-28T04:19:29.038Z,94542.31
2022-09-28T04:22:15.412Z,94550.56
2022-09-28T04:25:01.939Z,94548.66
2022-09-28T04:28:05.608Z,94537.13
2022-09-28T04:30:52.177Z,94538.34
2022-09-28T04:33:39.873Z,94535.94
2022-09-28T04:36:26.323Z,94526.03
2022-09-28T04:39:12.813Z,94519.75
2022-09-28T04:41:59.936Z,94501.72
2022-09-28T04:44:46.655Z,94520.09
2022-09-28T04:47:33.169Z,94532.31
2022-09-28T04:50:20.851Z,94530.16
2022-09-28T04:53:07.134Z,94520.69
2022-09-28T04:55:58.462Z,94526.34
2022-09-28T04:58:47.928Z,94528.50
2022-09-28T05:01:38.398Z,94529.75
2022-09-28T05:04:26.162Z,94526.78
2022-09-28T05:07:14.208Z,94524.66
2022-09-28T05:10:01.600Z,94519.03
2022-09-28T05:12:47.784Z,94513.84
2022-09-28T05:15:35.383Z,94511.44
2022-09-28T05:18:22.567Z,94513.16
2022-09-28T05:21:12.816Z,94508.34
2022-09-28T05:24:00.832Z,94488.13
2022-09-28T05:26:47.110Z,94494.16
2022-09-28T05:29:33.604Z,94476.19
2022-09-28T05:32:20.411Z,94479.28
2022-09-28T05:35:08.058Z,94475.91
2022-09-28T05:37:55.404Z,94477.41
2022-09-28T05:40:43.205Z,94484.75
2022-09-28T05:43:29.862Z,94488.63
2022-09-28T05:46:16.182Z,94477.50
2022-09-28T05:49:03.274Z,94466.78
2022-09-28T05:51:49.940Z,94445.00
2022-09-28T05:54:36.418Z,94447.78
2022-09-28T05:57:24.254Z,94437.03
2022-09-28T06:00:11.648Z,94439.44
2022-09-28T06:03:00.106Z,94463.88
2022-09-28T06:05:47.448Z,94465.28
2022-09-28T06:08:34.171Z,94473.25
2022-09-28T06:11:20.804Z,94461.09
2022-09-28T06:14:08.437Z,94458.00
2022-09-28T06:16:54.773Z,94454.28
2022-09-28T06:19:41.473Z,94449.91
2022-09-28T06:22:27.821Z,94454.50
2022-09-28T06:25:14.225Z,94450.81
2022-09-28T06:28:02.196Z,94453.75
2022-09-28T06:30:50.271Z,94453.81
2022-09-28T06:33:38.746Z,94452.44
2022-09-28T06:36:25.507Z,94449.94
2022-09-28T06:39:12.427Z,94444.44
2022-09-28T06:41:58.902Z,94441.59
2022-09-28T06:44:47.486Z,94433.19
2022-09-28T06:47:35.407Z,94437.16
2022-09-28T06:50:21.839Z,94428.84
2022-09-28T06:53:09.887Z,94424.34
2022-09-28T06:55:57.543Z,94425.81
2022-09-28T06:58:43.993Z,94433.53
2022-09-28T07:01:30.587Z,94430.69
2022-09-28T07:04:18.926Z,94428.69
2022-09-28T07:07:06.168Z,94420.13
2022-09-28T07:09:55.502Z,94417.00
2022-09-28T07:12:42.559Z,94404.38
2022-09-28T07:15:29.505Z,94401.31
2022-09-28T07:18:16.905Z,94400.53
2022-09-28T07:21:08.698Z,94397.34
2022-09-28T07:23:56.675Z,94390.00
2022-09-28T07:26:45.466Z,94385.66
2022-09-28T07:29:31.949Z,94384.22
2022-09-28T07:32:18.236Z,94384.88
2022-09-28T07:35:08.089Z,94387.88
2022-09-28T07:38:01.552Z,94387.03
2022-09-28T07:41:05.987Z,94387.75
2022-09-28T07:43:52.869Z,94378.88
2022-09-28T07:46:39.414Z,94376.78
2022-09-28T07:49:25.888Z,94384.44
2022-09-28T07:52:13.051Z,94384.00
2022-09-28T07:55:06.587Z,94351.13
2022-09-28T07:57:56.322Z,94380.09
2022-09-28T08:00:43.228Z,94383.25
2022-09-28T08:03:31.990Z,94385.22
2022-09-28T08:06:20.413Z,94371.72
2022-09-28T08:09:06.971Z,94367.41
2022-09-28T08:11:54.886Z,94359.66
2022-09-28T08:14:41.472Z,94352.78
2022-09-28T08:17:28.347Z,94342.59
2022-09-28T08:20:32.728Z,94334.19
2022-09-28T08:23:20.362Z,94324.78
2022-09-28T08:26:10.069Z,94324.81
2022-09-28T08:29:00.353Z,94333.22
2022-09-28T08:31:49.204Z,94326.44
2022-09-28T08:34:36.640Z,94324.72
2022-09-28T08:37:23.310Z,94333.56
2022-09-28T08:40:14.810Z,94327.88
2022-09-28T08:43:05.881Z,94317.63
2022-09-28T08:45:54.038Z,94317.88
2022-09-28T08:49:13.435Z,94318.72
2022-09-28T08:52:02.094Z,94314.16
2022-09-28T08:54:51.796Z,94319.78
2022-09-28T08:57:45.117Z,94311.56
2022-09-28T09:00:35.310Z,94315.41
2022-09-28T09:03:24.550Z,94317.78
2022-09-28T09:06:20.492Z,94315.41
2022-09-28T09:09:11.982Z,94321.16
2022-09-28T09:12:04.607Z,94319.13
2022-09-28T09:15:20.990Z,94312.09
2022-09-28T09:18:20.041Z,94304.09
2022-09-28T09:21:12.007Z,94310.25
2022-09-28T09:24:04.803Z,94315.72
2022-09-28T09:26:53.649Z,94322.38
2022-09-28T09:29:54.643Z,94319.78
2022-09-28T09:32:59.810Z,94313.94
2022-09-28T09:35:55.705Z,94308.97
2022-09-28T09:38:58.140Z,94318.53
2022-09-28T09:41:56.286Z,94303.69
2022-09-28T09:44:55.068Z,94301.59
2022-09-28T09:47:44.572Z,94297.63
2022-09-28T09:50:34.867Z,94293.38
2022-09-28T09:53:28.861Z,94294.25
2022-09-28T09:56:21.177Z,94292.22
2022-09-28T09:59:09.931Z,94288.84
2022-09-28T10:01:57.646Z,94283.88
2022-09-28T10:04:46.959Z,94283.94
2022-09-28T10:07:43.436Z,94289.97
2022-09-28T10:10:31.817Z,94288.00
2022-09-28T10:13:19.791Z,94280.81
2022-09-28T10:16:06.810Z,94279.59
2022-09-28T10:18:53.486Z,94284.28
2022-09-28T10:21:41.121Z,94273.88
2022-09-28T10:24:31.959Z,94279.94
2022-09-28T10:27:20.632Z,94282.44
2022-09-28T10:30:16.670Z,94273.13
2022-09-28T10:33:02.930Z,94279.56
2022-09-28T10:35:49.758Z,94281.72
2022-09-28T10:38:36.636Z,94285.31
2022-09-28T10:41:23.140Z,94286.44
2022-09-28T10:44:15.033Z,94278.78
2022-09-28T10:47:05.416Z,94270.91
2022-09-28T10:49:53.108Z,94280.13
2022-09-28T10:52:41.671Z,94281.97
2022-09-28T10:55:30.708Z,94279.53
2022-09-28T10:58:27.249Z,94278.84
2022-09-28T11:01:15.252Z,94287.41
2022-09-28T11:04:05.226Z,94285.38
2022-09-28T11:06:52.477Z,94287.13
2022-09-28T11:09:45.706Z,94289.69
2022-09-28T11:12:39.662Z,94290.72
2022-09-28T11:15:29.024Z,94284.78
2022-09-28T11:18:28.303Z,94304.84
2022-09-28T11:21:18.353Z,94290.59
2022-09-28T11:24:08.064Z,94294.91
2022-09-28T11:26:57.557Z,94303.31
2022-09-28T11:29:46.156Z,94289.50
2022-09-28T11:32:42.513Z,94310.28
2022-09-28T11:35:34.266Z,94306.72
2022-09-28T11:38:33.669Z,94305.75
2022-09-28T11:41:38.559Z,94322.31
2022-09-28T11:44:37.785Z,94326.75
2022-09-28T11:47:47.585Z,94325.31
2022-09-28T11:50:44.233Z,94340.53
2022-09-28T11:53:37.319Z,94348.41
2022-09-28T11:56:33.876Z,94345.88
2022-09-28T11:59:25.979Z,94353.81
2022-09-28T12:02:16.430Z,94334.41
2022-09-28T12:05:19.882Z,94329.88
2022-09-28T12:08:10.966Z,94329.38
2022-09-28T12:11:01.179Z,94327.03
2022-09-28T12:13:49.272Z,94311.94
2022-09-28T12:17:04.156Z,94331.47
2022-09-28T12:19:49.764Z,94339.28
2022-09-28T12:22:39.640Z,94338.13
2022-09-28T12:25:27.646Z,94348.66
2022-09-28T12:28:20.301Z,94343.59
2022-09-28T12:31:14.354Z,94334.84
2022-09-28T12:34:01.093Z,94325.06
2022-09-28T12:36:57.388Z,94330.00
2022-09-28T12:40:01.785Z,94326.56
2022-09-28T12:43:29.151Z,94325.06
2022-09-28T12:46:39.490Z,94326.19
2022-09-28T12:52:50.812Z,94334.88
2022-09-28T12:55:48.187Z,94342.22
2022-09-28T12:58:52.208Z,94338.03
2022-09-28T13:01:51.550Z,94346.78
2022-09-28T13:04:47.874Z,94342.22
2022-09-28T13:07:22.864Z,94334.88
2022-09-28T13:10:01.362Z,94340.44
2022-09-28T13:12:40.390Z,94335.13
2022-09-28T13:15:38.414Z,94326.03
2022-09-28T13:18:11.914Z,94322.25
2022-09-28T13:20:47.625Z,94331.16
2022-09-28T13:23:20.098Z,94336.06
2022-09-28T13:25:53.888Z,94342.84
2022-09-28T13:28:27.290Z,94351.06
2022-09-28T13:33:33.840Z,94351.44
2022-09-28T13:36:03.120Z,94356.91
2022-09-28T13:38:47.170Z,94349.25
2022-09-28T13:41:21.637Z,94357.22
2022-09-28T13:44:02.878Z,94352.84
2022-09-28T13:46:39.146Z,94361.00
2022-09-28T13:49:12.468Z,94364.34
2022-09-28T13:51:51.741Z,94361.91
2022-09-28T13:54:41.559Z,94361.91
2022-09-28T13:57:19.754Z,94359.00
2022-09-28T13:59:55.576Z,94356.03
2022-09-28T14:02:32.798Z,94371.78
2022-09-28T14:05:03.844Z,94366.91
2022-09-28T14:07:58.898Z,94372.88
2022-09-28T14:10:52.021Z,94377.09
2022-09-28T14:13:55.068Z,94392.81
2022-09-28T14:16:27.070Z,94386.50
2022-09-28T14:18:59.984Z,94389.66
2022-09-28T14:22:03.188Z,94395.38
2022-09-28T14:24:51.917Z,94393.09
2022-09-28T14:27:33.655Z,94386.13
2022-09-28T14:30:18.608Z,94407.00
2022-09-28T14:32:54.821Z,94389.44
2022-09-28T14:35:31.348Z,94388.66
2022-09-28T14:38:19.632Z,94378.28
2022-09-28T14:41:12.759Z,94389.78
2022-09-28T14:44:05.397Z,94389.34
2022-09-28T14:46:43.770Z,94387.16
2022-09-28T14:49:49.019Z,94390.69
2022-09-28T14:52:21.079Z,94398.22
2022-09-28T14:54:54.336Z,94397.38
2022-09-28T14:57:25.247Z,94377.22
2022-09-28T14:59:54.055Z,94403.47
2022-09-28T15:02:25.152Z,94399.22
2022-09-28T15:05:00.242Z,94400.34
2022-09-28T15:07:36.045Z,94393.91
2022-09-28T15:10:07.486Z,94390.78
2022-09-28T15:12:36.944Z,94396.41
2022-09-28T15:15:21.130Z,94394.97
2022-09-28T15:17:52.749Z,94397.16
2022-09-28T15:20:24.992Z,94388.63
2022-09-28T15:22:57.082Z,94397.75
2022-09-28T15:25:28.945Z,94405.34
2022-09-28T15:27:58.758Z,94406.75
2022-09-28T15:30:29.364Z,94405.97
2022-09-28T15:33:18.268Z,94416.06
2022-09-28T15:35:49.248Z,94426.44
2022-09-28T15:38:22.172Z,94424.16
2022-09-28T15:40:57.332Z,94415.44
2022-09-28T15:43:29.336Z,94416.44
2022-09-28T15:46:02.626Z,94425.94
2022-09-28T15:48:35.843Z,94421.47
2022-09-28T15:51:11.100Z,94417.94
2022-09-28T15:53:48.743Z,94422.03
2022-09-28T15:56:17.028Z,94428.53
2022-09-28T15:58:45.328Z,94430.66
2022-09-28T16:01:36.284Z,94425.38
2022-09-28T16:04:40.280Z,94433.09
2022-09-28T16:07:27.796Z,94434.09
2022-09-28T16:10:08.294Z,94438.88
2022-09-28T16:12:49.295Z,94416.31
2022-09-28T16:15:25.551Z,94431.34
2022-09-28T16:17:56.022Z,94437.13
2022-09-28T16:20:30.153Z,94434.25
2022-09-28T16:23:05.912Z,94430.00
2022-09-28T16:25:39.435Z,94436.72
2022-09-28T16:28:09.150Z,94437.47
2022-09-28T16:30:37.203Z,94438.09
2022-09-28T16:33:06.969Z,94448.16
2022-09-28T16:35:51.719Z,94441.59
2022-09-28T16:38:20.717Z,94441.78
2022-09-28T16:40:53.834Z,94448.16
2022-09-28T16:43:26.987Z,94445.25
2022-09-28T16:45:58.404Z,94436.03
2022-09-28T16:48:27.485Z,94442.59
2022-09-28T16:50:55.848Z,94437.47
2022-09-28T16:53:41.580Z,94440.41
2022-09-28T16:56:11.303Z,94443.31
2022-09-28T16:58:39.450Z,94444.28
2022-09-28T17:01:08.772Z,94453.59
2022-09-28T17:03:37.571Z,94461.31
2022-09-28T17:06:11.974Z,94460.84
2022-09-28T17:08:40.704Z,94463.06
2022-09-28T17:11:18.170Z,94444.84
2022-09-28T17:13:50.769Z,94460.69
2022-09-28T17:16:36.706Z,94471.91
2022-09-28T17:19:20.121Z,94467.94
2022-09-28T17:21:48.865Z,94481.56
2022-09-28T17:24:17.498Z,94487.69
2022-09-28T17:26:49.071Z,94481.91
2022-09-28T17:29:17.407Z,94482.25
2022-09-28T17:31:46.804Z,94485.81
2022-09-28T17:34:16.596Z,94482.16
2022-09-28T17:36:45.272Z,94482.97
2022-09-28T17:39:14.504Z,94484.09
2022-09-28T17:41:42.563Z,94485.84
2022-09-28T17:44:15.175Z,94495.47
2022-09-28T17:46:46.339Z,94488.59
2022-09-28T17:49:14.966Z,94496.81
2022-09-28T17:51:43.256Z,94498.59
2022-09-28T17:54:13.010Z,94505.09
2022-09-28T17:56:42.612Z,94506.78
2022-09-28T17:59:15.123Z,94509.81
2022-09-28T18:01:44.087Z,94504.97
2022-09-28T18:04:33.420Z,94513.31
2022-09-28T18:07:01.752Z,94503.06
2022-09-28T18:09:29.932Z,94516.25
2022-09-28T18:12:01.371Z,94524.59
2022-09-28T18:14:30.788Z,94518.81
2022-09-28T18:16:58.957Z,94522.97
2022-09-28T18:19:31.731Z,94525.88
2022-09-28T18:22:01.423Z,94527.19
2022-09-28T18:24:30.071Z,94527.03
2022-09-28T18:26:58.233Z,94519.03
2022-09-28T18:29:28.924Z,94536.66
2022-09-28T18:32:00.600Z,94534.44
2022-09-28T18:34:28.669Z,94534.44
2022-09-28T18:36:56.737Z,94541.16
2022-09-28T18:39:26.568Z,94532.16
2022-09-28T18:41:54.679Z,94525.31
2022-09-28T18:44:22.864Z,94533.34
2022-09-28T18:46:51.620Z,94541.06
2022-09-28T18:49:21.280Z,94555.31
2022-09-28T18:51:49.255Z,94563.69
2022-09-28T18:54:17.455Z,94549.44
2022-09-28T18:56:45.502Z,94551.34
2022-09-28T18:59:14.155Z,94554.13
2022-09-28T19:01:43.366Z,94561.34
2022-09-28T19:04:12.906Z,94566.16
2022-09-28T19:06:44.623Z,94553.19
2022-09-28T19:09:13.250Z,94569.06
2022-09-28T19:11:41.386Z,94575.78
2022-09-28T19:14:11.117Z,94577.06
2022-09-28T19:16:39.189Z,94575.16
2022-09-28T19:19:07.308Z,94579.94
2022-09-28T19:21:35.418Z,94573.22
2022-09-28T19:24:05.368Z,94580.28
2022-09-28T19:26:34.035Z,94588.44
2022-09-28T19:29:02.875Z,94581.72
2022-09-28T19:31:31.768Z,94579.00
2022-09-28T19:34:00.176Z,94582.50
2022-09-28T19:36:29.471Z,94578.97
2022-09-28T19:38:58.882Z,94575.16
2022-09-28T19:41:44.350Z,94571.47
2022-09-28T19:44:15.845Z,94587.00
2022-09-28T19:46:43.918Z,94588.59
2022-09-28T19:49:13.280Z,94584.44
2022-09-28T19:51:51.663Z,94596.13
2022-09-28T19:54:35.700Z,94598.53
2022-09-28T19:57:09.057Z,94592.47
2022-09-28T19:59:37.525Z,94594.69
2022-09-28T20:02:05.949Z,94603.34
2022-09-28T20:04:34.026Z,94602.22
2022-09-28T20:07:02.146Z,94600.63
2022-09-28T20:09:30.276Z,94611.69
2022-09-28T20:11:58.421Z,94602.72
2022-09-28T20:14:32.857Z,94600.31
2022-09-28T20:17:04.652Z,94599.19
2022-09-28T20:19:32.738Z,94601.41
2022-09-28T20:22:02.828Z,94605.25
2022-09-28T20:24:31.421Z,94594.22
2022-09-28T20:27:01.484Z,94607.16
2022-09-28T20:29:33.549Z,94616.16
2022-09-28T20:32:03.870Z,94613.69
2022-09-28T20:34:33.588Z,94622.50
2022-09-28T20:37:01.787Z,94626.16
2022-09-28T20:39:29.849Z,94620.72
2022-09-28T20:41:57.855Z,94627.13
2022-09-28T20:44:25.935Z,94622.81
2022-09-28T20:46:56.746Z,94626.66
2022-09-28T20:49:24.880Z,94608.38
2022-09-28T20:51:52.914Z,94629.06
2022-09-28T20:54:22.233Z,94630.47
2022-09-28T20:56:50.254Z,94631.75
2022-09-28T20:59:18.395Z,94638.47
2022-09-28T21:01:46.502Z,94643.59
2022-09-28T21:04:15.935Z,94645.19
2022-09-28T21:06:44.000Z,94644.25
2022-09-28T21:09:13.309Z,94646.63
2022-09-28T21:11:41.760Z,94662.66
2022-09-28T21:14:10.793Z,94665.50
2022-09-28T21:16:39.209Z,94668.69
2022-09-28T21:19:07.518Z,94661.81
2022-09-28T21:21:36.915Z,94661.81
2022-09-28T21:24:05.210Z,94660.19
2022-09-28T21:26:33.530Z,94662.91
2022-09-28T21:29:02.689Z,94677.19
2022-09-28T21:31:33.509Z,94680.19
2022-09-28T21:34:01.843Z,94673.78
2022-09-28T21:36:29.854Z,94669.78
2022-09-28T21:38:59.209Z,94673.59
2022-09-28T21:41:28.785Z,94673.75
2022-09-28T21:43:56.805Z,94677.13
2022-09-28T21:46:24.915Z,94680.63
2022-09-28T21:48:54.477Z,94677.91
2022-09-28T21:51:22.662Z,94672.97
2022-09-28T21:53:50.810Z,94678.06
2022-09-28T21:56:20.185Z,94679.16
2022-09-28T21:58:48.417Z,94672.41
2022-09-28T22:01:18.343Z,94667.41
2022-09-28T22:03:48.560Z,94675.59
2022-09-28T22:06:17.086Z,94682.59
2022-09-28T22:08:45.583Z,94677.59
2022-09-28T22:11:14.955Z,94682.84
2022-09-28T22:13:46.124Z,94684.63
2022-09-28T22:16:15.773Z,94694.50
2022-09-28T22:18:43.970Z,94697.22
2022-09-28T22:21:15.403Z,94703.28
2022-09-28T22:23:43.453Z,94697.06
2022-09-28T22:26:13.144Z,94696.09
2022-09-28T22:28:45.151Z,94670.78
2022-09-28T22:31:14.835Z,94678.84
2022-09-28T22:33:43.057Z,94686.22
2022-09-28T22:36:11.443Z,94670.50
2022-09-28T22:38:40.456Z,94682.31
2022-09-28T22:41:08.516Z,94676.03
2022-09-28T22:43:36.463Z,94680.28
2022-09-28T22:46:06.040Z,94670.88
2022-09-28T22:48:35.880Z,94671.69
2022-09-28T22:51:05.337Z,94675.03
2022-09-28T22:53:33.984Z,94677.72
2022-09-28T22:56:04.589Z,94667.44
2022-09-28T22:58:32.929Z,94682.56
2022-09-28T23:01:06.857Z,94694.41
2022-09-28T23:03:36.423Z,94700.16
2022-09-28T23:06:04.733Z,94696.50
2022-09-28T23:08:33.021Z,94703.69
2022-09-28T23:11:01.435Z,94708.31
2022-09-28T23:13:31.114Z,94702.06
2022-09-28T23:16:00.077Z,94708.81
2022-09-28T23:18:28.940Z,94698.97
2022-09-28T23:20:59.965Z,94706.84
2022-09-28T23:23:28.650Z,94708.06
2022-09-28T23:25:56.962Z,94707.81
2022-09-28T23:28:26.480Z,94707.81
2022-09-28T23:30:54.645Z,94707.00
2022-09-28T23:33:22.922Z,94714.66
2022-09-28T23:35:51.183Z,94718.47
2022-09-28T23:38:20.514Z,94719.28
2022-09-28T23:40:49.244Z,94724.34
2022-09-28T23:43:17.291Z,94724.75
2022-09-28T23:45:45.577Z,94725.56
2022-09-28T23:48:15.029Z,94714.25
2022-09-28T23:50:43.467Z,94713.28
2022-09-28T23:53:11.936Z,94710.72
2022-09-28T23:55:41.895Z,94719.88
2022-09-28T23:58:09.986Z,94722.13
